Prescott Valley, AZ

7:59 AM MST on August 28, 2016 (GMT -0700)
Naklas | | Change Station

Elev 4976 ft 34.62 °N, 112.31 °W | Updated 1 minute ago

Clear
Clear
64.6 °F
Feels Like 64.6 °F
N
0.7
Wind Variable Wind from NW
Gusts 1.6 mph

Today
High -- | Low -- °F
--% Chance of Precip.
Yesterday
High -- | Low -- °F
Precip. -- in
Pressure 30.05 in
Visibility 10.0 miles
Clouds Clear
Dew Point 56 °F
Humidity 75%
Rainfall 0.00 in
Snow Depth Not available.
5:59 AM 7:00 PM
Waning Crescent, 15% visible
METAR KPRC 281453Z 00000KT 10SM CLR 17/13 A3024 RMK AO2 SLP176 T01670128 53013 $
Pressure 30.05 in
Visibility 10.0 miles
Clouds Clear
Dew Point 56 °F
Humidity 75%
Rainfall 0.00 in
Snow Depth Not available.
5:59 AM 7:00 PM
Waning Crescent, 15% visible
METAR KPRC 281453Z 00000KT 10SM CLR 17/13 A3024 RMK AO2 SLP176 T01670128 53013 $

10-Day Weather Forecast

Almanac

Astronomy

Aug. 28, 2016 Rise Set
Actual Time
Civil Twilight
Nautical Twilight
Astronomical Twilight
Moon
Length of Visible Light
Length of Day
Tomorrow will be .
, % of the Moon is Illuminated

Today's Extremes

State Highs State Lows

Community

WunderPhotos

Upload Photos

1,935,579 photos uploaded!

WunderBlog® & News

Nearby

Air Quality

  Air Quality AQ Index Pollutant
Not available.

Snow Depth

Station Depth Elevation

Earthquake Activity

City Distance Mag. Time & Date
Minimum magnitude displayed is 2.5.

Coastal Water Temperatures

Place Temperature

Stations

Nearby Weather Stations

Station Location Temp. Windchill Dew Point Humidity Wind Precip. Elev Updated Type
                   

Watches & Warnings

There are currently no watches in effect.